createdAt,value
2019-03-10T00:00:32.216Z,101168.08
2019-03-10T00:03:01.484Z,101162.84
2019-03-10T00:05:30.686Z,101161.50
2019-03-10T00:08:00.506Z,101161.19
2019-03-10T00:10:29.692Z,101161.19
2019-03-10T00:12:59.084Z,101149.73
2019-03-10T00:15:28.213Z,101149.73
2019-03-10T00:17:57.485Z,101129.80
2019-03-10T00:20:26.758Z,101129.80
2019-03-10T00:22:56.009Z,101135.67
2019-03-10T00:25:25.193Z,101131.70
2019-03-10T00:27:54.503Z,101123.81
2019-03-10T00:30:23.913Z,101102.89
2019-03-10T00:32:53.079Z,101093.59
2019-03-10T00:35:22.254Z,101093.59
2019-03-10T00:37:51.434Z,101085.19
2019-03-10T00:40:46.253Z,101084.80
2019-03-10T00:43:50.542Z,101084.80
2019-03-10T00:46:45.760Z,101086.14
2019-03-10T00:49:33.311Z,101086.14
2019-03-10T00:52:07.755Z,101070.22
2019-03-10T00:54:36.950Z,101067.14
2019-03-10T00:57:06.133Z,101045.16
2019-03-10T00:59:35.302Z,101053.91
2019-03-10T01:02:04.573Z,101026.11
2019-03-10T01:04:33.761Z,101028.50
2019-03-10T01:07:02.998Z,101021.89
2019-03-10T01:09:32.176Z,101009.70
2019-03-10T01:12:02.935Z,101009.70
2019-03-10T01:14:32.728Z,101015.13
2019-03-10T01:17:03.759Z,101007.37
2019-03-10T01:19:33.483Z,100981.44
2019-03-10T01:22:02.743Z,100981.44
2019-03-10T01:24:31.919Z,100987.30
2019-03-10T01:27:01.967Z,100966.19
2019-03-10T01:29:31.151Z,100966.19
2019-03-10T01:32:24.381Z,100963.39
2019-03-10T01:35:05.109Z,100963.39
2019-03-10T01:37:34.302Z,100956.31
2019-03-10T01:40:03.969Z,100946.85
2019-03-10T01:42:33.166Z,100946.85
2019-03-10T01:45:02.344Z,100946.61
2019-03-10T01:47:31.539Z,100934.79
2019-03-10T01:50:00.726Z,100915.80
2019-03-10T01:52:29.911Z,100909.58
2019-03-10T01:54:59.113Z,100909.58
2019-03-10T01:57:28.286Z,100896.41
2019-03-10T01:59:57.449Z,100890.41
2019-03-10T02:02:26.933Z,100888.45
2019-03-10T02:04:56.111Z,100877.83
2019-03-10T02:07:25.343Z,100870.61
2019-03-10T02:09:54.485Z,100860.42
2019-03-10T02:12:23.667Z,100856.20
2019-03-10T02:14:52.865Z,100856.22
2019-03-10T02:17:22.043Z,100851.00
2019-03-10T02:19:51.267Z,100845.24
2019-03-10T02:22:20.463Z,100839.78
2019-03-10T02:24:49.639Z,100842.05
2019-03-10T02:27:36.521Z,100830.44
2019-03-10T02:30:14.921Z,100817.33
2019-03-10T02:32:44.101Z,100807.72
2019-03-10T02:35:13.349Z,100790.50
2019-03-10T02:37:42.616Z,100773.92
2019-03-10T02:40:12.345Z,100767.81
2019-03-10T02:42:41.670Z,100759.09
2019-03-10T02:45:11.379Z,100760.91
2019-03-10T02:47:40.560Z,100750.71
2019-03-10T02:50:10.708Z,100744.24
2019-03-10T02:52:39.918Z,100732.78
2019-03-10T02:55:09.425Z,100732.80
2019-03-10T02:57:38.612Z,100722.88
2019-03-10T03:00:10.726Z,100708.76
2019-03-10T03:02:39.929Z,100695.16
2019-03-10T03:05:10.717Z,100695.28
2019-03-10T03:07:39.924Z,100676.20
2019-03-10T03:10:13.769Z,100674.92
2019-03-10T03:12:42.961Z,100655.78
2019-03-10T03:15:12.277Z,100649.23
2019-03-10T03:17:41.526Z,100641.23
2019-03-10T03:20:12.438Z,100631.09
2019-03-10T03:22:41.726Z,100627.78
2019-03-10T03:25:12.169Z,100630.30
2019-03-10T03:27:41.679Z,100627.55
2019-03-10T03:30:16.015Z,100621.53
2019-03-10T03:32:45.257Z,100616.83
2019-03-10T03:35:46.878Z,100620.14
2019-03-10T03:38:36.881Z,100615.44
2019-03-10T03:41:20.102Z,100610.34
2019-03-10T03:43:49.293Z,100602.13
2019-03-10T03:46:18.463Z,100598.86
2019-03-10T03:48:47.665Z,100590.97
2019-03-10T03:51:16.891Z,100590.27
2019-03-10T03:53:46.067Z,100576.91
2019-03-10T03:56:17.668Z,100557.22
2019-03-10T03:58:46.842Z,100559.26
2019-03-10T04:01:20.132Z,100554.09
2019-03-10T04:03:49.296Z,100537.70
2019-03-10T04:06:18.488Z,100530.89
2019-03-10T04:08:49.877Z,100523.67
2019-03-10T04:11:19.054Z,100521.66
2019-03-10T04:13:48.157Z,100517.34
2019-03-10T04:16:17.337Z,100506.06
2019-03-10T04:18:46.509Z,100501.97
2019-03-10T04:21:15.701Z,100485.84
2019-03-10T04:23:44.888Z,100481.56
2019-03-10T04:26:14.053Z,100467.88
2019-03-10T04:28:43.248Z,100450.84
2019-03-10T04:31:12.449Z,100443.66
2019-03-10T04:33:41.806Z,100438.13
2019-03-10T04:36:10.995Z,100438.03
2019-03-10T04:38:40.252Z,100432.70
2019-03-10T04:41:09.408Z,100415.78
2019-03-10T04:43:38.581Z,100410.58
2019-03-10T04:46:07.794Z,100405.58
2019-03-10T04:48:36.969Z,100403.97
2019-03-10T04:51:06.146Z,100391.68
2019-03-10T04:53:35.326Z,100380.67
2019-03-10T04:56:11.885Z,100386.85
2019-03-10T04:58:42.719Z,100370.77
2019-03-10T05:01:15.849Z,100373.33
2019-03-10T05:03:45.067Z,100362.99
2019-03-10T05:06:14.252Z,100356.41
2019-03-10T05:08:43.425Z,100335.45
2019-03-10T05:11:12.608Z,100336.79
2019-03-10T05:13:41.791Z,100327.78
2019-03-10T05:16:10.985Z,100319.56
2019-03-10T05:18:40.165Z,100312.11
2019-03-10T05:21:09.259Z,100307.22
2019-03-10T05:23:40.182Z,100291.96
2019-03-10T05:26:09.625Z,100286.33
2019-03-10T05:28:41.847Z,100287.58
2019-03-10T05:31:11.048Z,100279.91
2019-03-10T05:33:40.225Z,100272.33
2019-03-10T05:36:09.401Z,100273.26
2019-03-10T05:38:38.581Z,100269.41
2019-03-10T05:41:07.786Z,100261.34
2019-03-10T05:43:36.973Z,100250.64
2019-03-10T05:46:06.210Z,100252.90
2019-03-10T05:48:35.381Z,100237.13
2019-03-10T05:51:04.596Z,100223.50
2019-03-10T05:53:33.795Z,100209.41
2019-03-10T05:56:02.981Z,100204.14
2019-03-10T05:58:32.145Z,100194.64
2019-03-10T06:01:01.312Z,100187.65
2019-03-10T06:03:30.499Z,100175.89
2019-03-10T06:05:59.780Z,100170.11
2019-03-10T06:08:28.950Z,100173.34
2019-03-10T06:10:58.136Z,100166.81
2019-03-10T06:13:27.429Z,100151.93
2019-03-10T06:15:56.703Z,100143.22
2019-03-10T06:18:25.886Z,100140.49
2019-03-10T06:20:55.089Z,100130.02
2019-03-10T06:23:24.259Z,100126.27
2019-03-10T06:25:53.431Z,100125.01
2019-03-10T06:28:22.601Z,100114.05
2019-03-10T06:30:51.781Z,100106.89
2019-03-10T06:33:20.983Z,100124.23
2019-03-10T06:35:50.212Z,100102.77
2019-03-10T06:38:19.407Z,100079.44
2019-03-10T06:40:48.511Z,100090.94
2019-03-10T06:43:17.697Z,100069.38
2019-03-10T06:45:46.876Z,100077.98
2019-03-10T06:48:16.045Z,100066.84
2019-03-10T06:50:45.246Z,100053.95
2019-03-10T06:53:14.434Z,100028.57
2019-03-10T06:55:43.639Z,100028.44
2019-03-10T06:58:12.823Z,100043.20
2019-03-10T07:00:41.993Z,100033.53
2019-03-10T07:03:11.194Z,100021.45
2019-03-10T07:05:40.374Z,100013.00
2019-03-10T07:08:09.563Z,100019.52
2019-03-10T07:10:38.728Z,100025.08
2019-03-10T07:13:07.930Z,100005.25
2019-03-10T07:15:37.118Z,100014.55
2019-03-10T07:18:06.288Z,100004.15
2019-03-10T07:20:35.486Z,100006.34
2019-03-10T07:23:06.296Z,99988.45
2019-03-10T07:25:35.454Z,99977.14
2019-03-10T07:28:15.099Z,99965.24
2019-03-10T07:30:48.847Z,99972.25
2019-03-10T07:33:31.960Z,99966.22
2019-03-10T07:36:12.066Z,99964.33
2019-03-10T07:38:57.840Z,99957.45
2019-03-10T07:41:28.658Z,99974.38
2019-03-10T07:44:15.781Z,99965.54
2019-03-10T07:46:49.462Z,99955.81
2019-03-10T07:49:32.140Z,99946.80
2019-03-10T07:52:05.918Z,99948.86
2019-03-10T07:54:36.728Z,99950.18
2019-03-10T07:57:22.582Z,99947.52
2019-03-10T07:59:53.411Z,99936.16
2019-03-10T08:02:42.319Z,99927.40
2019-03-10T08:05:37.206Z,99921.64
2019-03-10T08:08:08.016Z,99910.24
2019-03-10T08:10:51.062Z,99900.89
2019-03-10T08:13:37.990Z,99895.33
2019-03-10T08:16:24.831Z,99898.82
2019-03-10T08:19:01.108Z,99885.80
2019-03-10T08:21:40.830Z,99872.78
2019-03-10T08:24:11.656Z,99861.42
2019-03-10T08:27:00.751Z,99868.72
2019-03-10T08:29:31.556Z,99860.44
2019-03-10T08:32:02.378Z,99846.45
2019-03-10T08:34:49.306Z,99849.66
2019-03-10T08:37:36.610Z,99836.36
2019-03-10T08:40:19.781Z,99829.64
2019-03-10T08:43:07.039Z,99825.94
2019-03-10T08:45:37.838Z,99818.05
2019-03-10T08:48:08.648Z,99814.28
2019-03-10T08:50:42.479Z,99805.13
2019-03-10T08:53:13.305Z,99790.45
2019-03-10T08:55:58.913Z,99792.51
2019-03-10T08:58:29.832Z,99782.52
2019-03-10T09:01:00.678Z,99781.64
2019-03-10T09:03:31.495Z,99767.11
2019-03-10T09:06:14.332Z,99754.67
2019-03-10T09:08:57.176Z,99740.98
2019-03-10T09:11:30.988Z,99764.69
2019-03-10T09:14:01.836Z,99742.87
2019-03-10T09:16:48.911Z,99709.17
2019-03-10T09:19:25.214Z,99706.83
2019-03-10T09:22:01.947Z,99718.33
2019-03-10T09:24:48.944Z,99713.94
2019-03-10T09:27:22.737Z,99706.59
2019-03-10T09:30:09.750Z,99696.58
2019-03-10T09:32:52.656Z,99687.50
2019-03-10T09:35:38.251Z,99678.97
2019-03-10T09:38:15.019Z,99668.47
2019-03-10T09:40:48.730Z,99653.42
2019-03-10T09:43:19.557Z,99652.52
2019-03-10T09:45:50.298Z,99643.19
2019-03-10T09:48:29.920Z,99635.09
2019-03-10T09:51:09.663Z,99635.27
2019-03-10T09:53:40.492Z,99627.30
2019-03-10T09:56:17.284Z,99636.70
2019-03-10T09:58:57.189Z,99631.36
2019-03-10T10:01:42.966Z,99615.99
2019-03-10T10:04:16.714Z,99614.07
2019-03-10T10:06:53.315Z,99607.30
2019-03-10T10:09:24.149Z,99608.63
2019-03-10T10:12:00.591Z,99599.77
2019-03-10T10:14:31.418Z,99608.50
2019-03-10T10:17:07.989Z,99608.33
2019-03-10T10:19:47.644Z,99604.16
2019-03-10T10:22:23.990Z,99594.30
2019-03-10T10:25:03.792Z,99594.30
2019-03-10T10:27:37.240Z,99597.08
2019-03-10T10:30:29.534Z,99592.58
2019-03-10T10:33:00.359Z,99592.58
2019-03-10T10:35:37.017Z,99598.52
2019-03-10T10:38:18.675Z,99602.89
2019-03-10T10:40:59.895Z,99596.43
2019-03-10T10:43:39.720Z,99591.22
2019-03-10T10:46:16.923Z,99590.04
2019-03-10T10:48:50.583Z,99589.09
2019-03-10T10:51:29.715Z,99582.73
2019-03-10T10:54:00.123Z,99582.73
2019-03-10T10:56:30.972Z,99578.57
2019-03-10T10:59:07.726Z,99578.57
2019-03-10T11:01:41.039Z,99588.03
2019-03-10T11:04:17.738Z,99592.59
2019-03-10T11:07:06.121Z,99592.59
2019-03-10T11:09:43.193Z,99605.97
2019-03-10T11:12:19.855Z,99591.40
2019-03-10T11:14:53.847Z,99591.59
2019-03-10T11:17:42.945Z,99592.08
2019-03-10T11:20:13.855Z,99592.08
2019-03-10T11:22:47.610Z,99581.65
2019-03-10T11:25:24.343Z,99586.23
2019-03-10T11:27:55.179Z,99578.39
2019-03-10T11:30:42.591Z,99578.16
2019-03-10T11:33:22.247Z,99578.16
2019-03-10T11:35:53.666Z,99577.31
2019-03-10T11:38:42.902Z,99586.49
2019-03-10T11:41:16.716Z,99586.49
2019-03-10T11:44:17.044Z,99574.85
2019-03-10T11:46:48.142Z,99579.11
2019-03-10T11:49:22.535Z,99575.09
2019-03-10T11:52:02.100Z,99560.37
2019-03-10T11:54:36.977Z,99561.61
2019-03-10T11:57:16.779Z,99561.61
2019-03-10T11:59:50.471Z,99608.44
2019-03-10T12:02:26.973Z,99623.98
2019-03-10T12:05:00.598Z,99624.55
2019-03-10T12:08:05.005Z,99599.75
2019-03-10T12:10:34.205Z,99599.75
2019-03-10T12:13:03.387Z,99607.39
2019-03-10T12:15:32.568Z,99626.21
2019-03-10T12:18:01.750Z,99615.74
2019-03-10T12:20:30.938Z,99619.95
2019-03-10T12:23:00.203Z,99619.95
2019-03-10T12:25:29.440Z,99628.48
2019-03-10T12:27:58.613Z,99653.86
2019-03-10T12:30:27.777Z,99653.86
2019-03-10T12:32:56.968Z,99647.57
2019-03-10T12:35:34.036Z,99636.89
2019-03-10T12:37:57.037Z,99646.44
2019-03-10T12:40:26.272Z,99626.88
2019-03-10T12:42:55.441Z,99639.87
2019-03-10T12:45:24.628Z,99642.44
2019-03-10T12:47:53.854Z,99638.59
2019-03-10T12:50:23.159Z,99655.59
2019-03-10T12:52:52.344Z,99658.53
2019-03-10T12:55:21.511Z,99665.20
2019-03-10T12:57:50.696Z,99670.72
2019-03-10T13:00:19.952Z,99671.61
2019-03-10T13:02:49.238Z,99700.75
2019-03-10T13:05:18.414Z,99700.75
2019-03-10T13:07:47.603Z,99748.31
2019-03-10T13:10:16.775Z,99748.31
2019-03-10T13:12:45.977Z,99762.27
2019-03-10T13:15:15.256Z,99784.23
2019-03-10T13:17:44.424Z,99784.23
2019-03-10T13:20:13.832Z,99791.50
2019-03-10T13:22:43.171Z,99820.14
2019-03-10T13:25:13.314Z,99877.22
2019-03-10T13:27:42.577Z,99877.22
2019-03-10T13:30:14.559Z,99891.72
2019-03-10T13:32:44.661Z,99932.00
2019-03-10T13:35:14.339Z,99955.19
2019-03-10T13:37:43.596Z,99958.00
2019-03-10T13:40:14.667Z,100004.81
2019-03-10T13:43:01.848Z,100046.21
2019-03-10T13:45:31.054Z,100087.94
2019-03-10T13:48:00.272Z,100108.06
2019-03-10T13:50:29.474Z,100131.05
2019-03-10T13:52:58.647Z,100157.06
2019-03-10T13:55:27.831Z,100206.05
2019-03-10T13:57:57.023Z,100214.67
2019-03-10T14:00:26.835Z,100223.89
2019-03-10T14:02:56.107Z,100253.48
2019-03-10T14:05:25.456Z,100278.78
2019-03-10T14:07:54.649Z,100308.59
2019-03-10T14:10:23.822Z,100312.94
2019-03-10T14:12:53.077Z,100326.11
2019-03-10T14:15:22.345Z,100345.20
2019-03-10T14:17:51.540Z,100364.83
2019-03-10T14:20:20.874Z,100366.16
2019-03-10T14:22:50.038Z,100395.23
2019-03-10T14:25:19.294Z,100418.86
2019-03-10T14:27:48.488Z,100433.50
2019-03-10T14:30:18.804Z,100445.12
2019-03-10T14:32:48.238Z,100474.29
2019-03-10T14:35:17.777Z,100471.19
2019-03-10T14:37:46.962Z,100491.75
2019-03-10T14:40:17.686Z,100521.83
2019-03-10T14:42:46.896Z,100509.05
2019-03-10T14:45:17.621Z,100531.47
2019-03-10T14:47:46.983Z,100551.75
2019-03-10T14:50:19.680Z,100561.82
2019-03-10T14:52:48.941Z,100567.16
2019-03-10T14:55:19.572Z,100578.61
2019-03-10T14:57:48.773Z,100560.91
2019-03-10T15:00:28.613Z,100595.44
2019-03-10T15:02:57.812Z,100604.04
2019-03-10T15:05:27.009Z,100602.61
2019-03-10T15:07:56.171Z,100611.40
2019-03-10T15:10:25.355Z,100621.70
2019-03-10T15:12:54.535Z,100626.52
2019-03-10T15:15:23.848Z,100625.36
2019-03-10T15:17:53.908Z,100632.71
2019-03-10T15:20:23.150Z,100643.22
2019-03-10T15:22:52.344Z,100648.31
2019-03-10T15:25:24.943Z,100651.49
2019-03-10T15:27:53.626Z,100655.38
2019-03-10T15:30:24.360Z,100662.55
2019-03-10T15:32:53.679Z,100666.73
2019-03-10T15:35:22.975Z,100665.31
2019-03-10T15:37:52.153Z,100680.95
2019-03-10T15:40:21.378Z,100694.14
2019-03-10T15:42:50.552Z,100696.10
2019-03-10T15:45:20.049Z,100693.73
2019-03-10T15:47:49.235Z,100692.03
2019-03-10T15:50:26.485Z,100701.81
2019-03-10T15:52:55.774Z,100709.41
2019-03-10T15:55:24.937Z,100707.05
2019-03-10T15:57:54.184Z,100719.54
2019-03-10T16:00:28.177Z,100717.97
2019-03-10T16:02:57.458Z,100724.06
2019-03-10T16:05:26.964Z,100731.09
2019-03-10T16:07:56.210Z,100729.28
2019-03-10T16:10:25.396Z,100727.23
2019-03-10T16:12:54.561Z,100740.22
2019-03-10T16:15:25.888Z,100736.13
2019-03-10T16:17:55.210Z,100751.67
2019-03-10T16:20:24.390Z,100745.73
2019-03-10T16:22:55.346Z,100739.88
2019-03-10T16:25:24.431Z,100756.66
2019-03-10T16:27:53.624Z,100772.83
2019-03-10T16:30:25.215Z,100760.17
2019-03-10T16:32:54.470Z,100766.65
2019-03-10T16:35:23.706Z,100770.54
2019-03-10T16:37:52.913Z,100776.88
2019-03-10T16:40:22.902Z,100793.02
2019-03-10T16:42:52.081Z,100828.94
2019-03-10T16:45:22.187Z,100802.39
2019-03-10T16:47:51.351Z,100817.47
2019-03-10T16:50:24.702Z,100830.33
2019-03-10T16:52:53.926Z,100834.03
2019-03-10T16:55:23.091Z,100860.27
2019-03-10T16:57:52.377Z,100858.31
2019-03-10T17:00:21.773Z,100883.34
2019-03-10T17:03:09.208Z,100893.59
2019-03-10T17:05:38.455Z,100906.66
2019-03-10T17:08:07.622Z,100902.27
2019-03-10T17:10:36.786Z,100916.47
2019-03-10T17:13:05.978Z,100895.42
2019-03-10T17:15:35.208Z,100928.89
2019-03-10T17:18:04.473Z,100934.72
2019-03-10T17:20:33.652Z,100929.83
2019-03-10T17:23:02.820Z,100949.07
2019-03-10T17:25:31.993Z,100927.88
2019-03-10T17:28:01.168Z,100942.27
2019-03-10T17:30:30.368Z,100942.19
2019-03-10T17:32:59.525Z,100952.44
2019-03-10T17:35:28.698Z,100946.37
2019-03-10T17:37:57.870Z,100946.49
2019-03-10T17:40:27.052Z,100946.98
2019-03-10T17:43:14.339Z,100939.82
2019-03-10T17:45:43.587Z,100945.30
2019-03-10T17:48:13.242Z,100951.67
2019-03-10T17:50:42.618Z,100957.34
2019-03-10T17:53:11.851Z,100953.61
2019-03-10T17:55:41.038Z,100944.59
2019-03-10T17:58:10.255Z,100942.09
2019-03-10T18:00:40.301Z,100936.17
2019-03-10T18:03:09.469Z,100935.20
2019-03-10T18:05:38.679Z,100947.81
2019-03-10T18:08:07.930Z,100943.31
2019-03-10T18:10:37.119Z,100950.74
2019-03-10T18:13:06.640Z,100974.69
2019-03-10T18:15:35.840Z,101043.56
2019-03-10T18:18:05.113Z,101026.76
2019-03-10T18:20:34.287Z,101035.52
2019-03-10T18:23:03.471Z,101026.25
2019-03-10T18:25:32.649Z,101011.03
2019-03-10T18:28:02.393Z,100989.75
2019-03-10T18:30:31.567Z,101018.03
2019-03-10T18:33:00.737Z,101020.34
2019-03-10T18:35:29.983Z,101020.42
2019-03-10T18:37:59.177Z,101032.23
2019-03-10T18:40:28.995Z,101028.41
2019-03-10T18:42:58.258Z,101024.33
2019-03-10T18:45:27.429Z,101035.12
2019-03-10T18:47:56.618Z,101031.22
2019-03-10T18:50:27.599Z,101035.48
2019-03-10T18:52:56.766Z,101045.26
2019-03-10T18:55:25.957Z,101047.14
2019-03-10T18:57:55.133Z,101057.23
2019-03-10T19:00:25.638Z,101057.63
2019-03-10T19:02:54.898Z,101051.95
2019-03-10T19:05:24.079Z,101047.88
2019-03-10T19:07:53.334Z,101049.79
2019-03-10T19:10:22.513Z,101057.78
2019-03-10T19:12:51.695Z,101062.59
2019-03-10T19:15:25.134Z,101051.94
2019-03-10T19:17:54.617Z,101069.00
2019-03-10T19:20:23.852Z,101061.22
2019-03-10T19:22:53.043Z,101068.34
2019-03-10T19:25:22.214Z,101064.92
2019-03-10T19:27:51.390Z,101067.03
2019-03-10T19:30:22.447Z,101076.70
2019-03-10T19:32:51.703Z,101068.98
2019-03-10T19:35:20.950Z,101082.81
2019-03-10T19:37:50.136Z,101079.55
2019-03-10T19:40:37.677Z,101072.64
2019-03-10T19:43:25.042Z,101073.24
2019-03-10T19:45:54.214Z,101081.45
2019-03-10T19:48:23.518Z,101083.47
2019-03-10T19:51:10.866Z,101079.78
2019-03-10T19:53:41.352Z,101083.69
2019-03-10T19:56:10.513Z,101080.08
2019-03-10T19:58:39.737Z,101077.12
2019-03-10T20:01:08.909Z,101072.81
2019-03-10T20:03:38.105Z,101071.19
2019-03-10T20:06:07.298Z,101076.47
2019-03-10T20:08:36.471Z,101064.61
2019-03-10T20:11:05.669Z,101066.67
2019-03-10T20:13:34.837Z,101078.45
2019-03-10T20:16:04.056Z,101079.69
2019-03-10T20:18:33.234Z,101063.70
2019-03-10T20:21:02.431Z,101089.62
2019-03-10T20:23:31.598Z,101075.70
2019-03-10T20:26:00.774Z,101096.83
2019-03-10T20:28:29.982Z,101091.17
2019-03-10T20:30:59.108Z,101085.75
2019-03-10T20:33:28.287Z,101097.44
2019-03-10T20:35:57.467Z,101097.87
2019-03-10T20:38:28.148Z,101098.09
2019-03-10T20:40:57.347Z,101099.67
2019-03-10T20:43:26.516Z,101113.42
2019-03-10T20:45:55.726Z,101106.72
2019-03-10T20:48:24.893Z,101101.83
2019-03-10T20:50:54.123Z,101103.98
2019-03-10T20:53:23.301Z,101106.46
2019-03-10T20:55:52.463Z,101105.38
2019-03-10T20:58:21.659Z,101108.61
2019-03-10T21:00:50.834Z,101104.00
2019-03-10T21:03:20.001Z,101109.00
2019-03-10T21:05:49.181Z,101100.92
2019-03-10T21:08:18.383Z,101088.41
2019-03-10T21:10:47.579Z,101097.09
2019-03-10T21:13:16.778Z,101104.00
2019-03-10T21:15:45.958Z,101105.52
2019-03-10T21:18:15.138Z,101100.31
2019-03-10T21:20:44.340Z,101097.65
2019-03-10T21:23:13.528Z,101090.81
2019-03-10T21:25:42.708Z,101088.83
2019-03-10T21:28:11.882Z,101082.17
2019-03-10T21:30:41.081Z,101084.66
2019-03-10T21:33:10.297Z,101085.13
2019-03-10T21:35:39.482Z,101079.80
2019-03-10T21:38:08.650Z,101088.22
2019-03-10T21:40:55.964Z,101077.60
2019-03-10T21:43:43.113Z,101078.38
2019-03-10T21:46:12.272Z,101079.95
2019-03-10T21:48:41.452Z,101075.78
2019-03-10T21:51:10.701Z,101075.83
2019-03-10T21:53:39.879Z,101076.30
2019-03-10T21:56:09.048Z,101057.73
2019-03-10T21:58:38.247Z,101074.67
2019-03-10T22:01:07.423Z,101076.87
2019-03-10T22:03:36.616Z,101077.24
2019-03-10T22:06:05.855Z,101075.48
2019-03-10T22:08:35.055Z,101075.19
2019-03-10T22:11:04.342Z,101063.58
2019-03-10T22:13:33.545Z,101089.03
2019-03-10T22:16:02.734Z,101065.66
2019-03-10T22:18:31.897Z,101048.55
2019-03-10T22:21:01.098Z,101063.13
2019-03-10T22:23:30.279Z,101079.12
2019-03-10T22:25:59.451Z,101080.27
2019-03-10T22:28:28.632Z,101076.37
2019-03-10T22:30:57.828Z,101086.56
2019-03-10T22:33:27.031Z,101070.31
2019-03-10T22:35:56.206Z,101077.03
2019-03-10T22:38:43.481Z,101087.85
2019-03-10T22:41:12.659Z,101081.37
2019-03-10T22:43:59.861Z,101097.14
2019-03-10T22:46:29.040Z,101105.03
2019-03-10T22:48:58.209Z,101102.45
2019-03-10T22:51:27.386Z,101101.45
2019-03-10T22:53:56.548Z,101089.16
2019-03-10T22:56:25.734Z,101101.65
2019-03-10T22:58:54.904Z,101088.92
2019-03-10T23:01:24.126Z,101083.05
2019-03-10T23:03:53.265Z,101078.66
2019-03-10T23:06:22.445Z,101086.77
2019-03-10T23:08:51.627Z,101089.16
2019-03-10T23:11:20.813Z,101094.13
2019-03-10T23:13:50.021Z,101101.73
2019-03-10T23:16:19.181Z,101083.19
2019-03-10T23:18:48.349Z,101101.92
2019-03-10T23:21:17.526Z,101090.34
2019-03-10T23:23:46.703Z,101100.55
2019-03-10T23:26:15.901Z,101101.10
2019-03-10T23:28:45.086Z,101106.42
2019-03-10T23:31:14.249Z,101115.77
2019-03-10T23:33:43.422Z,101107.83
2019-03-10T23:36:12.595Z,101118.33
2019-03-10T23:38:41.795Z,101103.95
2019-03-10T23:41:10.966Z,101114.52
2019-03-10T23:43:40.140Z,101109.23
2019-03-10T23:46:09.310Z,101115.55
2019-03-10T23:48:38.496Z,101121.13
2019-03-10T23:51:07.711Z,101120.64
2019-03-10T23:53:36.880Z,101118.16
2019-03-10T23:56:06.190Z,101121.37
2019-03-10T23:58:35.391Z,101116.20
